Time;durP1;ratioP1;P1;durP2;ratioP2;P2;SDS_P1;SDS_P2;PMS_P1;PMS_P2;Temp;Humidity;BMP_temperature;BMP_pressure;BME280_temperature;BME280_humidity;BME280_pressure;Samples;Min_cycle;Max_cycle;Signal;HPM_P1;HPM_P2
2023/03/28 00:01:10;;;;;;;3.42;2.85;;;3.60;80.70;;;;;;5008475;28;20032;-60
2023/03/28 00:03:38;;;;;;;3.90;2.90;;;3.60;80.60;;;;;;5010963;28;20041;-59
2023/03/28 00:06:09;;;;;;;3.28;2.70;;;3.50;80.60;;;;;;5007191;28;20042;-59
2023/03/28 00:08:38;;;;;;;5.13;3.03;;;3.50;80.80;;;;;;5010846;28;20084;-59
2023/03/28 00:11:06;;;;;;;3.53;2.78;;;3.50;80.70;;;;;;5011361;28;20475;-61
2023/03/28 00:13:32;;;;;;;3.30;2.58;;;3.40;80.80;;;;;;5005940;28;20498;-60
2023/03/28 00:16:07;;;;;;;3.08;2.78;;;3.40;80.90;;;;;;5007836;28;20052;-60
2023/03/28 00:18:36;;;;;;;3.17;2.50;;;3.40;81.30;;;;;;5008032;28;20033;-60
2023/03/28 00:21:02;;;;;;;4.10;2.45;;;3.30;80.80;;;;;;5010714;28;20034;-60
2023/03/28 00:23:29;;;;;;;3.80;2.63;;;3.30;80.60;;;;;;5010543;28;20433;-61
2023/03/28 00:25:56;;;;;;;2.47;2.22;;;3.30;80.70;;;;;;5010761;28;20041;-60
2023/03/28 00:28:21;;;;;;;2.63;2.38;;;3.20;80.50;;;;;;5009201;28;20184;-61
2023/03/28 00:30:47;;;;;;;2.65;2.40;;;3.20;80.50;;;;;;5008644;28;20187;-61
2023/03/28 00:33:12;;;;;;;3.10;2.20;;;3.20;80.50;;;;;;5009957;28;20075;-60
2023/03/28 00:35:38;;;;;;;1.98;1.88;;;3.10;80.50;;;;;;5007888;28;20346;-60
2023/03/28 00:38:03;;;;;;;2.88;2.00;;;3.10;80.40;;;;;;5012257;28;20399;-59
2023/03/28 00:40:34;;;;;;;2.22;1.80;;;3.10;80.40;;;;;;5013772;28;20114;-60
2023/03/28 00:43:00;;;;;;;2.28;1.80;;;3.00;80.60;;;;;;5019731;28;20034;-62
2023/03/28 00:45:25;;;;;;;2.55;1.80;;;3.00;80.40;;;;;;5019335;28;20513;-61
2023/03/28 00:47:56;;;;;;;4.60;1.90;;;3.00;80.40;;;;;;5011283;28;20030;-60
2023/03/28 00:50:29;;;;;;;4.15;2.05;;;3.00;80.50;;;;;;5011855;28;20046;-59
2023/03/28 00:53:04;;;;;;;2.72;1.83;;;2.90;80.70;;;;;;5012515;28;20509;-61
2023/03/28 00:55:45;;;;;;;3.90;1.67;;;2.90;80.80;;;;;;5013018;28;20437;-60
2023/03/28 00:58:16;;;;;;;3.22;2.00;;;2.90;80.70;;;;;;5015456;28;20034;-60
2023/03/28 01:00:45;;;;;;;6.07;2.08;;;2.90;80.60;;;;;;5014436;28;20177;-56
2023/03/28 01:03:12;;;;;;;4.32;2.20;;;2.80;80.40;;;;;;5018387;28;20042;-60
2023/03/28 01:05:39;;;;;;;3.03;2.00;;;2.80;80.40;;;;;;5011224;28;20060;-59
2023/03/28 01:08:21;;;;;;;2.60;1.98;;;2.80;80.40;;;;;;5007971;28;20044;-61
2023/03/28 01:10:47;;;;;;;2.70;2.00;;;2.80;80.30;;;;;;5013953;28;20037;-60
2023/03/28 01:13:19;;;;;;;4.65;2.22;;;2.80;80.30;;;;;;5006434;28;20038;-60
2023/03/28 01:15:48;;;;;;;3.67;2.00;;;2.80;80.30;;;;;;5014223;28;20044;-58
2023/03/28 01:18:15;;;;;;;2.72;2.10;;;2.80;80.40;;;;;;5010968;28;20030;-58
2023/03/28 01:20:53;;;;;;;2.95;1.90;;;2.80;80.10;;;;;;5012883;28;20200;-60
2023/03/28 01:23:28;;;;;;;3.75;2.03;;;2.80;80.10;;;;;;5015500;28;20034;-60
2023/03/28 01:26:12;;;;;;;3.50;1.90;;;2.80;80.20;;;;;;5017157;28;20049;-60
2023/03/28 01:29:18;;;;;;;4.00;2.15;;;2.80;79.90;;;;;;5016481;28;20042;-59
2023/03/28 01:32:02;;;;;;;3.47;2.03;;;2.70;80.20;;;;;;5011341;28;20026;-60
2023/03/28 01:35:01;;;;;;;4.27;2.07;;;2.70;79.70;;;;;;5013014;28;20474;-59
2023/03/28 01:38:01;;;;;;;3.42;1.90;;;2.80;80.20;;;;;;5014790;28;20037;-60
2023/03/28 01:40:51;;;;;;;3.63;1.88;;;2.70;80.20;;;;;;5015646;28;20056;-60
2023/03/28 01:43:16;;;;;;;3.60;1.67;;;2.70;79.80;;;;;;5014357;28;20072;-61
2023/03/28 01:45:47;;;;;;;2.22;2.00;;;2.70;79.70;;;;;;5012127;28;20088;-58
2023/03/28 01:48:36;;;;;;;2.00;1.80;;;2.70;79.70;;;;;;5011584;28;20026;-61
2023/03/28 01:51:13;;;;;;;2.10;1.88;;;2.80;80.20;;;;;;5008381;28;20042;-60
2023/03/28 01:53:45;;;;;;;3.53;2.08;;;2.80;79.90;;;;;;5012156;28;20042;-60
2023/03/28 01:56:38;;;;;;;3.75;2.00;;;2.80;79.90;;;;;;5010857;28;20027;-59
2023/03/28 01:59:13;;;;;;;2.88;1.85;;;2.80;80.00;;;;;;5013799;28;21531;-59
2023/03/28 02:02:00;;;;;;;3.40;1.90;;;2.80;79.80;;;;;;5010642;28;20043;-59
2023/03/28 02:04:28;;;;;;;5.25;2.17;;;2.80;79.90;;;;;;5012229;28;20382;-60
2023/03/28 02:06:56;;;;;;;3.17;2.10;;;2.80;79.60;;;;;;5010642;28;20044;-59
2023/03/28 02:09:23;;;;;;;2.15;1.95;;;2.70;79.50;;;;;;5011096;28;20046;-60
2023/03/28 02:11:56;;;;;;;3.75;2.40;;;2.70;79.50;;;;;;5009980;28;20087;-60
2023/03/28 02:14:26;;;;;;;3.92;1.92;;;2.70;79.50;;;;;;5012407;28;20117;-60
2023/03/28 02:16:59;;;;;;;4.03;2.10;;;2.70;79.50;;;;;;5013697;28;20048;-59
2023/03/28 02:19:27;;;;;;;2.83;2.20;;;2.70;79.50;;;;;;5012689;28;20136;-59
2023/03/28 02:22:03;;;;;;;2.75;2.10;;;2.60;79.40;;;;;;5011440;28;20421;-60
2023/03/28 02:24:28;;;;;;;4.18;1.90;;;2.60;79.50;;;;;;5010163;28;20169;-60
2023/03/28 02:26:55;;;;;;;4.10;2.00;;;2.60;79.30;;;;;;5009973;28;20037;-59
2023/03/28 02:29:22;;;;;;;2.70;2.13;;;2.60;79.20;;;;;;5011670;28;20041;-58
2023/03/28 02:31:48;;;;;;;2.40;2.10;;;2.60;79.30;;;;;;5009895;28;20042;-59
2023/03/28 02:34:14;;;;;;;4.82;2.10;;;2.50;79.30;;;;;;5013746;28;20046;-59
2023/03/28 02:36:44;;;;;;;3.90;2.15;;;2.50;79.30;;;;;;5015089;28;20501;-60
2023/03/28 02:39:34;;;;;;;2.85;2.03;;;2.50;79.30;;;;;;5015118;28;20030;-59
2023/03/28 02:42:15;;;;;;;4.13;2.47;;;2.50;79.70;;;;;;5013531;28;20116;-59
2023/03/28 02:45:17;;;;;;;2.75;2.13;;;2.50;79.30;;;;;;5008607;28;20589;-61
2023/03/28 02:47:47;;;;;;;5.38;2.58;;;2.50;79.40;;;;;;5009397;28;20045;-58
2023/03/28 02:50:30;;;;;;;4.95;2.38;;;2.50;79.20;;;;;;5008184;28;20099;-60
2023/03/28 02:53:13;;;;;;;4.47;2.42;;;2.50;79.30;;;;;;5008622;28;20414;-59
2023/03/28 02:55:57;;;;;;;4.53;2.55;;;2.50;79.30;;;;;;5011076;28;20042;-59
2023/03/28 02:58:33;;;;;;;5.57;2.93;;;2.50;79.30;;;;;;5008256;28;20030;-61
2023/03/28 03:01:01;;;;;;;5.38;2.38;;;2.50;79.30;;;;;;5011180;28;20273;-59
2023/03/28 03:03:27;;;;;;;3.83;2.40;;;2.50;79.20;;;;;;5010863;28;20151;-60
2023/03/28 03:05:53;;;;;;;3.88;2.17;;;2.50;79.00;;;;;;5010985;28;20045;-60
2023/03/28 03:08:18;;;;;;;3.60;2.50;;;2.50;79.00;;;;;;5008965;28;20489;-60
2023/03/28 03:10:44;;;;;;;3.92;2.67;;;2.50;79.90;;;;;;5011909;28;20037;-59
2023/03/28 03:13:09;;;;;;;5.20;2.40;;;2.50;79.00;;;;;;5001508;28;20042;-61
2023/03/28 03:15:35;;;;;;;5.07;2.40;;;2.50;79.00;;;;;;5011296;28;20077;-60
2023/03/28 03:18:01;;;;;;;3.30;2.53;;;2.50;79.00;;;;;;5011586;28;20148;-59
2023/03/28 03:20:32;;;;;;;6.57;2.90;;;2.50;79.00;;;;;;5007383;28;20096;-60
2023/03/28 03:22:59;;;;;;;4.30;2.83;;;2.40;79.00;;;;;;5010115;28;20505;-61
2023/03/28 03:25:25;;;;;;;4.43;2.42;;;2.40;79.00;;;;;;5011897;28;20152;-61
2023/03/28 03:27:51;;;;;;;3.85;2.42;;;2.40;79.00;;;;;;5005514;28;20038;-59
2023/03/28 03:30:17;;;;;;;3.85;2.40;;;2.40;79.10;;;;;;5006952;28;20041;-61
2023/03/28 03:32:44;;;;;;;3.03;2.42;;;2.40;79.20;;;;;;5014203;28;20030;-61
2023/03/28 03:35:10;;;;;;;5.07;2.47;;;2.40;79.20;;;;;;5012832;28;20528;-61
2023/03/28 03:37:36;;;;;;;3.83;2.28;;;2.50;79.10;;;;;;5014924;28;20049;-61
2023/03/28 03:40:04;;;;;;;3.63;2.08;;;2.50;78.90;;;;;;5012582;28;20034;-61
2023/03/28 03:42:30;;;;;;;5.03;2.30;;;2.50;78.80;;;;;;5014070;28;20033;-61
2023/03/28 03:44:56;;;;;;;3.50;2.13;;;2.50;78.60;;;;;;5009737;28;20044;-61
2023/03/28 03:47:21;;;;;;;4.93;2.47;;;2.40;78.50;;;;;;5008671;28;20030;-61
2023/03/28 03:49:47;;;;;;;3.60;2.40;;;2.40;78.50;;;;;;5006974;28;20505;-60
2023/03/28 03:52:14;;;;;;;3.15;2.42;;;2.40;78.50;;;;;;5009174;28;20121;-59
2023/03/28 03:54:39;;;;;;;4.80;3.05;;;2.30;78.50;;;;;;5006752;28;20044;-60
2023/03/28 03:57:05;;;;;;;4.63;2.70;;;2.30;78.50;;;;;;5007075;28;20157;-58
2023/03/28 03:59:30;;;;;;;3.70;2.55;;;2.30;78.50;;;;;;5010142;28;20171;-60
2023/03/28 04:01:56;;;;;;;5.25;2.80;;;2.30;78.60;;;;;;5007081;28;20037;-61
2023/03/28 04:04:22;;;;;;;5.30;2.90;;;2.30;78.50;;;;;;5008173;28;21518;-59
2023/03/28 04:06:47;;;;;;;4.72;2.92;;;2.30;78.50;;;;;;5010662;28;20045;-60
2023/03/28 04:09:13;;;;;;;3.83;3.20;;;2.30;78.50;;;;;;5011197;28;20093;-60
2023/03/28 04:11:39;;;;;;;5.43;3.70;;;2.20;78.50;;;;;;5012908;28;20057;-61
2023/03/28 04:14:04;;;;;;;5.22;3.33;;;2.20;78.60;;;;;;5011007;28;20045;-59
2023/03/28 04:16:33;;;;;;;6.55;3.70;;;2.20;78.70;;;;;;5005566;28;20041;-61
2023/03/28 04:18:59;;;;;;;7.40;3.30;;;2.20;79.70;;;;;;5009015;28;20045;-59
2023/03/28 04:21:28;;;;;;;3.97;3.42;;;2.20;79.00;;;;;;5007446;28;20052;-59
2023/03/28 04:23:54;;;;;;;9.88;3.25;;;2.20;79.30;;;;;;5009271;28;20356;-60
2023/03/28 04:26:24;;;;;;;4.43;3.22;;;2.30;79.50;;;;;;5009943;28;20038;-60
2023/03/28 04:28:51;;;;;;;5.10;3.10;;;2.30;79.50;;;;;;5009117;28;20033;-61
2023/03/28 04:31:17;;;;;;;4.32;3.15;;;2.30;79.30;;;;;;5006311;28;20406;-59
2023/03/28 04:33:44;;;;;;;4.63;3.10;;;2.30;79.10;;;;;;5013414;28;20045;-61
2023/03/28 04:36:10;;;;;;;4.00;3.17;;;2.30;78.80;;;;;;5012422;28;20038;-61
2023/03/28 04:38:36;;;;;;;4.45;3.47;;;2.30;78.80;;;;;;5013584;28;20041;-61
2023/03/28 04:41:04;;;;;;;4.97;3.13;;;2.30;78.80;;;;;;5014666;28;20038;-61
2023/03/28 04:43:30;;;;;;;8.05;3.50;;;2.30;78.80;;;;;;5012621;28;20026;-61
2023/03/28 04:45:57;;;;;;;5.25;3.53;;;2.20;78.60;;;;;;5014647;28;20065;-60
2023/03/28 04:48:24;;;;;;;6.70;3.55;;;2.20;78.50;;;;;;5013832;28;20128;-58
2023/03/28 04:50:51;;;;;;;3.10;2.75;;;2.20;78.40;;;;;;5012331;28;20041;-61
2023/03/28 04:53:17;;;;;;;4.28;3.13;;;2.10;78.30;;;;;;5015068;28;20125;-61
2023/03/28 04:55:47;;;;;;;5.57;3.30;;;2.10;78.30;;;;;;5013775;28;20128;-60
2023/03/28 04:58:14;;;;;;;7.40;4.13;;;2.10;78.30;;;;;;5013964;28;20037;-61
2023/03/28 05:00:41;;;;;;;8.43;4.38;;;2.10;78.50;;;;;;5013758;28;20512;-61
2023/03/28 05:03:12;;;;;;;8.38;4.25;;;2.00;78.50;;;;;;5012555;28;20030;-60
2023/03/28 05:05:38;;;;;;;6.18;4.38;;;2.00;78.60;;;;;;5012693;28;20033;-60
2023/03/28 05:08:03;;;;;;;5.03;4.13;;;2.00;78.60;;;;;;5013519;28;20148;-60
2023/03/28 05:10:29;;;;;;;5.63;3.85;;;2.00;78.60;;;;;;5015153;28;20037;-59
2023/03/28 05:12:57;;;;;;;6.82;3.60;;;2.00;78.60;;;;;;5013089;28;20075;-59
2023/03/28 05:15:23;;;;;;;5.43;3.67;;;2.00;78.60;;;;;;5010968;28;20038;-60
2023/03/28 05:17:48;;;;;;;5.15;3.50;;;1.90;78.50;;;;;;5013210;28;20121;-60
2023/03/28 05:20:15;;;;;;;6.55;3.60;;;1.90;78.50;;;;;;5013314;28;20378;-60
2023/03/28 05:22:41;;;;;;;4.05;3.10;;;1.90;78.50;;;;;;5013937;28;20042;-61
2023/03/28 05:25:07;;;;;;;4.68;3.83;;;1.90;78.40;;;;;;5013436;28;20064;-60
2023/03/28 05:27:33;;;;;;;6.25;3.63;;;1.90;78.30;;;;;;5013660;28;20292;-61
2023/03/28 05:30:00;;;;;;;4.10;3.42;;;1.90;78.30;;;;;;5013528;28;20500;-61
2023/03/28 05:32:26;;;;;;;4.75;3.75;;;1.90;78.40;;;;;;5011628;28;20066;-62
2023/03/28 05:34:52;;;;;;;4.72;3.92;;;1.90;78.50;;;;;;5013206;28;20488;-61
2023/03/28 05:37:18;;;;;;;6.20;4.18;;;2.00;78.60;;;;;;5018093;28;20037;-60
2023/03/28 05:39:44;;;;;;;5.78;4.10;;;2.00;78.90;;;;;;5016326;28;20914;-61
2023/03/28 05:42:09;;;;;;;6.60;5.05;;;2.00;78.90;;;;;;5017755;28;20044;-61
2023/03/28 05:44:35;;;;;;;8.27;4.85;;;2.00;79.00;;;;;;5017562;28;20033;-61
2023/03/28 05:47:00;;;;;;;5.25;4.32;;;2.00;78.90;;;;;;5016271;28;20030;-59
2023/03/28 05:49:26;;;;;;;6.82;4.30;;;2.00;78.60;;;;;;5017250;28;20042;-61
2023/03/28 05:51:52;;;;;;;5.75;4.40;;;2.10;78.60;;;;;;5016121;28;20120;-60
2023/03/28 05:54:17;;;;;;;7.30;4.78;;;2.10;78.50;;;;;;5016468;28;20040;-60
2023/03/28 05:56:43;;;;;;;8.00;5.63;;;2.10;78.60;;;;;;5016860;28;20038;-60
2023/03/28 05:59:09;;;;;;;10.73;6.55;;;2.10;78.50;;;;;;5014890;28;20559;-60
2023/03/28 06:01:35;;;;;;;11.63;7.15;;;2.10;78.60;;;;;;5015980;28;20069;-61
2023/03/28 06:04:02;;;;;;;8.45;6.20;;;2.10;78.70;;;;;;5017489;28;20494;-61
2023/03/28 06:06:28;;;;;;;11.27;5.75;;;2.10;78.70;;;;;;5015275;28;20549;-60
2023/03/28 06:08:54;;;;;;;9.63;6.10;;;2.10;78.60;;;;;;5014397;28;20037;-60
2023/03/28 06:11:20;;;;;;;8.90;5.80;;;2.10;78.60;;;;;;5017566;28;20060;-60
2023/03/28 06:13:45;;;;;;;10.05;5.70;;;2.10;78.70;;;;;;5016553;28;20033;-60
2023/03/28 06:16:11;;;;;;;10.18;5.60;;;2.10;78.80;;;;;;5017488;28;20117;-60
2023/03/28 06:18:36;;;;;;;11.07;6.05;;;2.10;78.80;;;;;;5016618;28;20057;-60
2023/03/28 06:21:02;;;;;;;9.60;5.82;;;2.10;79.00;;;;;;5016255;28;20025;-60
2023/03/28 06:23:28;;;;;;;12.85;5.75;;;2.10;79.30;;;;;;5016918;28;20030;-59
2023/03/28 06:25:53;;;;;;;9.65;4.95;;;2.20;79.60;;;;;;5015816;28;20033;-59
2023/03/28 06:28:19;;;;;;;8.77;5.43;;;2.20;79.70;;;;;;5016325;28;20034;-59
2023/03/28 06:30:49;;;;;;;7.40;5.07;;;2.20;79.80;;;;;;5016205;28;20060;-59
2023/03/28 06:33:15;;;;;;;7.80;4.93;;;2.20;80.00;;;;;;5016821;28;20116;-60
2023/03/28 06:35:41;;;;;;;10.27;5.05;;;2.30;79.90;;;;;;5016682;28;20046;-58
2023/03/28 06:38:06;;;;;;;8.90;5.47;;;2.40;79.70;;;;;;5017293;28;20102;-59
2023/03/28 06:40:32;;;;;;;9.35;5.68;;;2.40;79.60;;;;;;5015064;28;20046;-61
2023/03/28 06:42:57;;;;;;;6.60;5.07;;;2.40;79.50;;;;;;5015167;28;20036;-59
2023/03/28 06:45:23;;;;;;;11.05;6.63;;;2.50;79.50;;;;;;5015219;28;20146;-59
2023/03/28 06:47:49;;;;;;;8.80;5.88;;;2.50;79.40;;;;;;5014782;28;20050;-58
2023/03/28 06:50:15;;;;;;;10.55;7.43;;;2.50;79.40;;;;;;5014301;28;20042;-60
2023/03/28 06:52:41;;;;;;;13.20;7.32;;;2.50;79.50;;;;;;5015582;28;20409;-61
2023/03/28 06:55:06;;;;;;;10.32;6.65;;;2.60;79.50;;;;;;5016505;28;20030;-58
2023/03/28 06:57:32;;;;;;;8.60;5.50;;;2.60;79.50;;;;;;5015515;28;20454;-60
2023/03/28 06:59:58;;;;;;;7.05;5.70;;;2.60;79.40;;;;;;5015250;28;20048;-59
2023/03/28 07:02:23;;;;;;;13.05;7.25;;;2.70;79.50;;;;;;5016448;28;20310;-58
2023/03/28 07:04:49;;;;;;;13.15;7.53;;;2.70;79.70;;;;;;5015034;28;20502;-60
2023/03/28 07:07:15;;;;;;;8.82;6.28;;;2.80;79.70;;;;;;5013939;28;20121;-61
2023/03/28 07:09:40;;;;;;;11.13;7.20;;;2.80;79.90;;;;;;5015458;28;20037;-59
2023/03/28 07:12:06;;;;;;;10.60;6.18;;;2.80;80.00;;;;;;5016273;28;20040;-59
2023/03/28 07:14:32;;;;;;;11.70;6.68;;;2.90;80.10;;;;;;5014444;28;20066;-60
2023/03/28 07:16:57;;;;;;;7.93;4.97;;;2.90;79.90;;;;;;5014692;28;20033;-58
2023/03/28 07:19:23;;;;;;;6.53;4.45;;;2.90;79.70;;;;;;5014980;28;20037;-60
2023/03/28 07:21:49;;;;;;;7.10;4.20;;;3.00;79.50;;;;;;5015400;28;20049;-60
2023/03/28 07:24:15;;;;;;;10.35;5.60;;;3.00;79.00;;;;;;5014132;28;20037;-61
2023/03/28 07:26:41;;;;;;;10.95;4.55;;;3.00;78.70;;;;;;5015089;28;20083;-61
2023/03/28 07:29:06;;;;;;;8.40;4.80;;;3.10;78.90;;;;;;5015761;28;20164;-60
2023/03/28 07:31:32;;;;;;;6.43;4.68;;;3.10;78.80;;;;;;5015467;28;20054;-60
2023/03/28 07:33:58;;;;;;;7.90;4.38;;;3.10;78.60;;;;;;5014527;28;20052;-59
2023/03/28 07:36:25;;;;;;;9.35;4.68;;;3.20;78.70;;;;;;5014756;28;20033;-58
2023/03/28 07:38:51;;;;;;;7.60;4.50;;;3.20;78.30;;;;;;5015123;28;20033;-58
2023/03/28 07:41:17;;;;;;;10.45;4.82;;;3.30;78.20;;;;;;5012711;28;20045;-60
2023/03/28 07:43:42;;;;;;;6.45;4.28;;;3.40;78.30;;;;;;5015470;28;20664;-60
2023/03/28 07:46:12;;;;;;;7.75;4.68;;;3.40;78.40;;;;;;5013754;28;20437;-60
2023/03/28 07:48:39;;;;;;;7.93;4.57;;;3.50;78.30;;;;;;5014373;28;20091;-60
2023/03/28 07:51:06;;;;;;;5.00;4.20;;;3.50;78.10;;;;;;5015275;28;20041;-61
2023/03/28 07:53:33;;;;;;;7.97;4.57;;;3.60;77.90;;;;;;5013235;28;20218;-60
2023/03/28 07:55:59;;;;;;;7.30;4.50;;;3.60;77.80;;;;;;5014864;28;20034;-60
2023/03/28 07:58:25;;;;;;;8.23;4.80;;;3.70;77.60;;;;;;5013935;28;20165;-60
2023/03/28 08:00:51;;;;;;;7.32;3.80;;;3.80;77.50;;;;;;5014820;28;20448;-60
2023/03/28 08:03:17;;;;;;;6.45;4.68;;;3.90;77.30;;;;;;5010256;28;20468;-59
2023/03/28 08:05:48;;;;;;;5.28;4.40;;;3.90;76.90;;;;;;5015287;28;20045;-59
2023/03/28 08:08:14;;;;;;;5.75;4.22;;;3.90;76.40;;;;;;5015612;28;20401;-58
2023/03/28 08:10:44;;;;;;;5.20;4.13;;;3.90;76.20;;;;;;5016489;28;20432;-60
2023/03/28 08:13:09;;;;;;;6.45;4.50;;;4.00;76.00;;;;;;5015780;28;20029;-59
2023/03/28 08:15:35;;;;;;;7.00;4.25;;;4.00;76.10;;;;;;5012871;28;20045;-60
2023/03/28 08:18:01;;;;;;;7.75;4.45;;;4.00;76.00;;;;;;5016349;28;20521;-59
2023/03/28 08:20:26;;;;;;;7.60;4.45;;;4.10;76.20;;;;;;5017197;28;20041;-61
2023/03/28 08:22:52;;;;;;;6.90;4.55;;;4.10;76.00;;;;;;5014023;28;20038;-60
2023/03/28 08:25:17;;;;;;;5.13;3.90;;;4.20;75.50;;;;;;5016519;28;20037;-60
2023/03/28 08:27:43;;;;;;;7.47;4.10;;;4.20;75.30;;;;;;5017458;28;20038;-60
2023/03/28 08:30:10;;;;;;;9.30;4.50;;;4.20;75.20;;;;;;5015640;28;20052;-60
2023/03/28 08:32:35;;;;;;;6.53;3.78;;;4.30;75.30;;;;;;5014643;28;20034;-57
2023/03/28 08:35:01;;;;;;;4.85;3.97;;;4.30;76.50;;;;;;5015179;28;20374;-59
2023/03/28 08:37:28;;;;;;;4.78;4.00;;;4.40;75.60;;;;;;5014986;28;20030;-59
2023/03/28 08:39:54;;;;;;;6.40;4.20;;;4.50;75.70;;;;;;5016315;28;20493;-60
2023/03/28 08:42:58;;;;;;;4.65;3.47;;;4.50;75.20;;;;;;5015239;28;20044;-59
2023/03/28 08:45:30;;;;;;;6.50;3.70;;;4.60;74.60;;;;;;5015943;28;20121;-60
2023/03/28 08:47:56;;;;;;;5.57;3.70;;;4.70;74.50;;;;;;5015633;28;20037;-60
2023/03/28 08:50:28;;;;;;;5.35;3.90;;;4.80;74.20;;;;;;5012878;28;20517;-61
2023/03/28 08:52:54;;;;;;;5.60;3.65;;;4.80;73.80;;;;;;5016002;28;20041;-59
2023/03/28 08:55:53;;;;;;;6.88;3.83;;;4.90;73.80;;;;;;5014882;28;20034;-60
2023/03/28 08:58:20;;;;;;;6.40;3.30;;;5.00;72.90;;;;;;5014148;28;20026;-58
2023/03/28 09:00:47;;;;;;;5.88;3.67;;;5.00;72.70;;;;;;5013822;28;20440;-58
2023/03/28 09:03:16;;;;;;;5.53;3.40;;;5.10;72.30;;;;;;5016064;28;20037;-59
2023/03/28 09:05:50;;;;;;;5.20;3.60;;;5.10;72.00;;;;;;5014664;28;20045;-58
2023/03/28 09:08:49;;;;;;;6.93;3.50;;;5.10;72.30;;;;;;5014908;28;20050;-59
2023/03/28 09:11:31;;;;;;;6.22;3.78;;;5.20;71.80;;;;;;5016362;28;20045;-59
2023/03/28 09:14:05;;;;;;;4.55;3.13;;;5.20;72.40;;;;;;5018788;28;20390;-60
2023/03/28 09:17:10;;;;;;;2.78;2.50;;;5.30;69.10;;;;;;5018530;28;20026;-60
2023/03/28 09:20:10;;;;;;;5.83;3.20;;;5.30;67.70;;;;;;5017117;28;20044;-59
2023/03/28 09:22:54;;;;;;;5.43;3.40;;;5.30;68.60;;;;;;5017586;28;20084;-60
2023/03/28 09:25:19;;;;;;;10.45;3.47;;;5.40;68.90;;;;;;5018398;28;20092;-61
2023/03/28 09:27:53;;;;;;;4.50;2.95;;;5.40;69.10;;;;;;5018927;28;20045;-61
2023/03/28 09:30:27;;;;;;;5.28;2.80;;;5.40;67.60;;;;;;5017311;28;20065;-60
2023/03/28 09:32:57;;;;;;;7.18;3.45;;;5.40;68.60;;;;;;5016599;28;20040;-62
2023/03/28 09:35:24;;;;;;;4.85;3.35;;;5.50;69.40;;;;;;5017940;28;20493;-61
2023/03/28 09:37:59;;;;;;;6.78;3.63;;;5.50;69.60;;;;;;5018975;28;20458;-61
2023/03/28 09:40:27;;;;;;;5.75;3.55;;;5.60;69.90;;;;;;5017511;28;20038;-61
2023/03/28 09:43:24;;;;;;;9.05;3.78;;;5.70;69.60;;;;;;5017440;28;20034;-61
2023/03/28 09:45:58;;;;;;;5.30;3.38;;;5.70;68.40;;;;;;5018239;28;20461;-61
2023/03/28 09:48:33;;;;;;;6.07;3.55;;;5.80;69.40;;;;;;5016196;28;20056;-61
2023/03/28 09:51:00;;;;;;;6.93;2.80;;;5.90;68.60;;;;;;5019702;28;20044;-61
2023/03/28 09:53:31;;;;;;;3.00;2.70;;;6.00;68.80;;;;;;5016121;28;20037;-62
2023/03/28 09:56:01;;;;;;;5.05;3.08;;;6.10;67.20;;;;;;5018880;28;20124;-62
2023/03/28 09:58:27;;;;;;;3.33;2.50;;;6.20;65.90;;;;;;5017330;28;20053;-62
2023/03/28 10:00:54;;;;;;;6.22;3.22;;;6.30;66.80;;;;;;5018926;28;20489;-62
2023/03/28 10:03:31;;;;;;;4.70;3.08;;;6.30;65.60;;;;;;5019895;28;20041;-62
2023/03/28 10:05:58;;;;;;;3.45;2.20;;;6.40;66.00;;;;;;5018330;28;20033;-63
2023/03/28 10:08:39;;;;;;;3.55;2.55;;;6.40;65.60;;;;;;5016151;28;20065;-62
2023/03/28 10:11:16;;;;;;;3.17;2.42;;;6.50;65.00;;;;;;5018855;28;20195;-63
2023/03/28 10:13:49;;;;;;;2.25;2.00;;;6.60;65.80;;;;;;5017151;28;20042;-62
2023/03/28 10:16:27;;;;;;;3.35;2.20;;;6.60;63.90;;;;;;5017076;28;20030;-63
2023/03/28 10:18:53;;;;;;;4.78;2.67;;;6.70;62.20;;;;;;5016491;28;20038;-63
2023/03/28 10:21:31;;;;;;;3.97;2.50;;;6.60;63.50;;;;;;5014539;28;20038;-63
2023/03/28 10:24:03;;;;;;;3.53;2.60;;;6.80;60.10;;;;;;5016938;28;20050;-62
2023/03/28 10:26:30;;;;;;;3.42;2.58;;;6.80;61.70;;;;;;5014477;28;20041;-63
2023/03/28 10:29:00;;;;;;;3.58;2.35;;;6.80;61.50;;;;;;5015739;28;20084;-62
2023/03/28 10:31:29;;;;;;;2.58;2.22;;;6.90;60.60;;;;;;5017353;28;20597;-62
2023/03/28 10:33:56;;;;;;;6.38;2.10;;;6.90;60.60;;;;;;5017162;28;20041;-62
2023/03/28 10:36:28;;;;;;;2.85;1.77;;;7.00;62.00;;;;;;5018138;28;20034;-62
2023/03/28 10:38:53;;;;;;;2.22;1.85;;;7.10;61.30;;;;;;5017173;28;20034;-61
2023/03/28 10:41:27;;;;;;;3.58;2.30;;;7.10;61.20;;;;;;5016674;28;20029;-62
2023/03/28 10:43:55;;;;;;;3.22;2.00;;;7.20;62.00;;;;;;5016915;28;20532;-62
2023/03/28 10:46:31;;;;;;;4.38;2.30;;;7.30;61.40;;;;;;5016537;28;20049;-62
2023/03/28 10:49:04;;;;;;;4.45;3.10;;;7.40;60.60;;;;;;5016164;28;20436;-62
2023/03/28 10:51:31;;;;;;;5.05;2.10;;;7.50;59.90;;;;;;5015590;28;20030;-61
2023/03/28 10:54:06;;;;;;;3.95;2.20;;;7.60;60.50;;;;;;5017007;28;20050;-60
2023/03/28 10:56:37;;;;;;;3.75;2.38;;;7.70;61.10;;;;;;5017607;28;20026;-62
2023/03/28 10:59:24;;;;;;;6.10;2.58;;;7.80;61.00;;;;;;5016217;28;20041;-61
2023/03/28 11:02:01;;;;;;;3.15;2.00;;;7.90;60.00;;;;;;5016809;28;20056;-62
2023/03/28 11:04:47;;;;;;;3.08;2.25;;;8.00;60.20;;;;;;5015921;28;20378;-60
2023/03/28 11:07:15;;;;;;;3.58;2.10;;;8.00;60.60;;;;;;5017771;28;20064;-61
2023/03/28 11:09:55;;;;;;;4.18;2.08;;;8.20;61.10;;;;;;5014804;28;20121;-60
2023/03/28 11:12:32;;;;;;;3.88;1.95;;;8.20;59.90;;;;;;5016117;28;20028;-60
2023/03/28 11:15:07;;;;;;;2.35;2.00;;;8.40;59.60;;;;;;5016744;28;20040;-61
2023/03/28 11:17:44;;;;;;;3.35;2.45;;;8.40;59.40;;;;;;5014771;28;20454;-61
2023/03/28 11:20:40;;;;;;;2.70;1.75;;;8.50;59.50;;;;;;5017649;28;20467;-60
2023/03/28 11:23:37;;;;;;;3.05;2.20;;;8.60;58.40;;;;;;5016332;28;20046;-60
2023/03/28 11:26:24;;;;;;;2.67;2.05;;;8.70;57.10;;;;;;5013042;28;20042;-60
2023/03/28 11:28:59;;;;;;;3.55;2.08;;;8.70;58.00;;;;;;5015230;28;20583;-60
2023/03/28 11:31:43;;;;;;;2.53;1.90;;;8.70;58.90;;;;;;5015655;28;20030;-60
2023/03/28 11:34:31;;;;;;;3.63;2.15;;;8.80;58.30;;;;;;5014620;28;20033;-61
2023/03/28 11:37:16;;;;;;;3.60;1.98;;;8.80;57.90;;;;;;5016088;28;20038;-61
2023/03/28 11:40:00;;;;;;;2.85;1.90;;;8.80;57.90;;;;;;5016803;28;20114;-60
2023/03/28 11:42:48;;;;;;;4.17;2.23;;;8.90;58.30;;;;;;5014341;28;20038;-61
2023/03/28 11:45:26;;;;;;;3.40;1.83;;;8.90;57.50;;;;;;5014827;28;20045;-61
2023/03/28 11:48:32;;;;;;;2.67;2.05;;;8.90;56.80;;;;;;5015975;28;20413;-61
2023/03/28 11:51:25;;;;;;;2.72;2.08;;;9.00;55.60;;;;;;5014052;28;20131;-60
2023/03/28 11:53:57;;;;;;;3.28;2.10;;;9.00;56.50;;;;;;5016306;28;20088;-60
2023/03/28 11:56:31;;;;;;;2.33;1.92;;;9.00;56.40;;;;;;5015048;28;20056;-61
2023/03/28 11:59:02;;;;;;;4.18;2.35;;;9.00;55.10;;;;;;5015503;28;20116;-61
2023/03/28 12:01:36;;;;;;;2.22;1.60;;;9.00;54.60;;;;;;5014839;28;20741;-61
2023/03/28 12:04:28;;;;;;;2.53;2.05;;;9.00;55.40;;;;;;5016546;28;20510;-60
2023/03/28 12:07:18;;;;;;;2.88;1.80;;;9.00;54.90;;;;;;5017672;28;20122;-60
2023/03/28 12:09:57;;;;;;;2.17;1.80;;;9.00;54.20;;;;;;5012390;28;20211;-61
2023/03/28 12:12:31;;;;;;;2.78;2.10;;;9.10;55.40;;;;;;5016403;28;20048;-61
2023/03/28 12:15:14;;;;;;;3.67;2.05;;;9.10;53.80;;;;;;5016155;28;20393;-61
2023/03/28 12:17:47;;;;;;;2.50;2.03;;;9.00;54.00;;;;;;5016314;28;20060;-61
2023/03/28 12:20:31;;;;;;;3.08;2.13;;;9.00;54.00;;;;;;5014794;28;20052;-60
2023/03/28 12:23:03;;;;;;;2.00;1.50;;;9.10;54.40;;;;;;5015594;28;20455;-60
2023/03/28 12:25:44;;;;;;;1.55;1.42;;;9.10;55.80;;;;;;5014195;28;20048;-61
2023/03/28 12:28:38;;;;;;;3.63;1.45;;;9.20;55.00;;;;;;5015008;28;20068;-60
2023/03/28 12:31:21;;;;;;;3.03;1.70;;;9.20;54.60;;;;;;5016250;28;20041;-61
2023/03/28 12:34:37;;;;;;;2.28;1.67;;;9.30;55.00;;;;;;5015183;28;20056;-61
2023/03/28 12:37:27;;;;;;;2.40;1.55;;;9.40;53.80;;;;;;5013413;28;20092;-61
2023/03/28 12:40:13;;;;;;;3.45;1.85;;;9.40;53.30;;;;;;5014421;28;20057;-60
2023/03/28 12:42:44;;;;;;;2.75;1.80;;;9.40;53.70;;;;;;5015737;28;20046;-61
2023/03/28 12:45:27;;;;;;;2.85;1.73;;;9.30;55.00;;;;;;5016854;28;20033;-59
2023/03/28 12:47:55;;;;;;;2.67;1.60;;;9.40;54.70;;;;;;5019542;28;20535;-60
2023/03/28 12:50:30;;;;;;;2.60;1.95;;;9.40;54.50;;;;;;5018614;28;20129;-61
2023/03/28 12:52:56;;;;;;;;;;;9.40;53.90;;;;;;5016708;28;20044;-59
2023/03/28 12:55:25;;;;;;;4.88;1.60;;;9.40;55.00;;;;;;5016982;28;19956;-60
2023/03/28 12:57:53;;;;;;;3.45;1.83;;;9.50;55.90;;;;;;5019174;28;20069;-60
2023/03/28 13:00:46;;;;;;;1.88;1.75;;;9.50;55.90;;;;;;5016774;28;20072;-59
2023/03/28 13:03:43;;;;;;;3.33;1.98;;;9.50;55.20;;;;;;5019113;28;20034;-61
2023/03/28 13:06:20;;;;;;;2.20;1.80;;;9.60;55.30;;;;;;5018236;28;20073;-61
2023/03/28 13:09:46;;;;;;;2.97;2.03;;;9.60;56.10;;;;;;5019613;28;20395;-61
2023/03/28 13:12:20;;;;;;;3.15;1.73;;;9.60;55.30;;;;;;4981233;28;20065;-61
2023/03/28 13:15:26;;;;;;;3.78;1.77;;;9.70;55.80;;;;;;5011047;28;20072;-58
2023/03/28 13:18:18;;;;;;;2.15;1.77;;;9.80;55.00;;;;;;5020036;28;20107;-60
2023/03/28 13:20:46;;;;;;;3.88;2.03;;;9.80;54.80;;;;;;5019003;28;20040;-59
2023/03/28 13:23:14;;;;;;;2.40;2.03;;;9.80;55.80;;;;;;5019868;28;20054;-59